Airfield :
LOGIN :

Register | Disclaimer

   EN    FR    IT 

 










Legend :    VFR   Marginal VFR   IFR   Intensive IFR   Very Intensive IFR
Visi :
Ceiling :
>= 8 km
>= 3000ft
5 to 8 km
1000 to 3000 ft
1500m to 5 km
500 to 1000 ft
800 to 1500m
200 to 500 ft
< 800m
< 200 ft
Symbols :   Thunderstorms  Fog  Heavy snow  Heavy precipitations  Wind > 20 kt
SIGMETs :     Misc.  Thunderstorms  Icing  Turbulence  Mountain Waves  Volcanic Ashes






- Airport Elevation : 141 ft
- IATA code : SKS


EKSP - Srydstrup Vojens

CURRENT METAR :
  • 052050Z 33007KT CAVOK 01/M01 Q1039 RMK SCT250

EXPIRED METARs :
  • 052020Z 31005KT CAVOK 01/M02 Q1039 RMK SCT250
  • 051950Z 31003KT CAVOK 00/M02 Q1039 RMK SCT250
  • 051920Z 33003KT CAVOK 01/M02 Q1039
  • 051850Z 33006KT CAVOK 02/M01 Q1039
  • 051820Z 31006KT CAVOK 02/M01 Q1039 RMK FEW100 BKN250

TAF TAF EKSP
Valid from the 05 at 21:00 until the 06 at 21:00 UTC


052005Z 0521/0621 32004KT 9999 FEW250
TEMPO 0521/0603 1500 BCFG
BECMG 0603/0605 VRB02KT 0200 FG FZFG VV001
TEMPO 0605/0612 4000 BR BKN006
BECMG 0612/0614 18005KT 8000 NSW BKN012
TEMPO 0614/0618 3000 BR BKN005
TEMPO 0618/0621 0800 BCFG FZFG VV002



MET'MAP, your aeronautical weather chart ! - Copyright ORBIFLY December 2007 - Disclaimer

ORBIFLY MET'MAP TEAM :

Programming & Development : Alexandra Zaïnal
Original concept : Baudouin d'Aumeries
Technical & hardware support : Manuel Goepfert
Assistance : Marc-Olivier Méhu




SOURCES & CREDITS :

   NOAA